Time;durP1;ratioP1;P1;durP2;ratioP2;P2;SDS_P1;SDS_P2;PMS_P1;PMS_P2;Temp;Humidity;BMP_temperature;BMP_pressure;BME280_temperature;BME280_humidity;BME280_pressure;Samples;Min_cycle;Max_cycle;Signal;HPM_P1;HPM_P2
2022/08/07 00:01:44;;;;;;;1.88;1.08;;;25.30;35.30;;;;;;5055532;28;20024;-40
2022/08/07 00:04:10;;;;;;;1.88;1.08;;;25.30;35.30;;;;;;5053319;28;20037;-40
2022/08/07 00:06:36;;;;;;;1.55;0.90;;;25.20;35.30;;;;;;5056525;28;20029;-40
2022/08/07 00:09:03;;;;;;;1.55;0.73;;;25.20;35.40;;;;;;5059434;28;20035;-42
2022/08/07 00:11:28;;;;;;;2.55;0.80;;;25.20;35.40;;;;;;5055909;28;20509;-43
2022/08/07 00:13:54;;;;;;;2.55;1.10;;;25.10;35.30;;;;;;5055827;28;20070;-40
2022/08/07 00:16:20;;;;;;;4.25;0.93;;;25.10;35.40;;;;;;5062312;28;20047;-48
2022/08/07 00:18:46;;;;;;;1.00;0.75;;;25.10;35.40;;;;;;5053905;28;20020;-40
2022/08/07 00:21:11;;;;;;;1.55;1.00;;;25.10;35.40;;;;;;5060294;28;20075;-40
2022/08/07 00:23:38;;;;;;;2.80;0.85;;;25.10;35.40;;;;;;5053686;28;20029;-40
2022/08/07 00:26:06;;;;;;;1.90;0.82;;;25.10;35.40;;;;;;5053700;28;20060;-43
2022/08/07 00:28:33;;;;;;;2.13;1.00;;;25.10;35.50;;;;;;5063828;28;20013;-40
2022/08/07 00:30:59;;;;;;;1.70;0.90;;;25.10;35.50;;;;;;5053821;28;20021;-40
2022/08/07 00:33:27;;;;;;;1.23;0.98;;;25.00;35.40;;;;;;5054508;28;20414;-41
2022/08/07 00:35:54;;;;;;;1.50;0.85;;;25.00;35.40;;;;;;5061982;28;20067;-41
2022/08/07 00:38:20;;;;;;;2.65;1.23;;;25.00;35.50;;;;;;5055126;28;20159;-45
2022/08/07 00:40:46;;;;;;;2.88;0.98;;;25.00;35.50;;;;;;5060849;28;20470;-40
2022/08/07 00:43:12;;;;;;;1.50;0.80;;;25.00;35.50;;;;;;5063288;28;20077;-40
2022/08/07 00:45:39;;;;;;;1.10;0.70;;;25.00;35.40;;;;;;5062495;28;20462;-40
2022/08/07 00:48:06;;;;;;;2.95;1.63;;;25.00;35.50;;;;;;5065076;28;20408;-41
2022/08/07 00:50:33;;;;;;;1.33;0.68;;;24.90;35.40;;;;;;5061862;28;20078;-40
2022/08/07 00:52:58;;;;;;;1.38;0.90;;;24.80;35.30;;;;;;5065906;28;20389;-40
2022/08/07 00:55:24;;;;;;;9.95;1.33;;;24.80;35.40;;;;;;5055683;28;20054;-48
2022/08/07 00:57:50;;;;;;;1.48;1.05;;;24.90;35.30;;;;;;5055004;28;20393;-40
2022/08/07 01:00:17;;;;;;;2.58;0.82;;;24.90;35.30;;;;;;5058252;28;20029;-47
2022/08/07 01:02:44;;;;;;;2.33;1.27;;;24.90;35.30;;;;;;5056603;28;20028;-40
2022/08/07 01:05:11;;;;;;;2.60;0.90;;;24.90;35.30;;;;;;5057719;28;20394;-41
2022/08/07 01:07:37;;;;;;;3.45;0.68;;;25.00;35.40;;;;;;5067827;28;20107;-40
2022/08/07 01:10:03;;;;;;;2.90;0.73;;;25.00;35.40;;;;;;5058200;28;20467;-40
2022/08/07 01:12:30;;;;;;;0.80;0.63;;;25.00;35.30;;;;;;5060070;28;20044;-40
2022/08/07 01:14:59;;;;;;;1.38;0.82;;;24.90;35.30;;;;;;5065763;28;20039;-40
2022/08/07 01:17:25;;;;;;;1.60;0.90;;;24.90;35.30;;;;;;5057444;28;20060;-45
2022/08/07 01:19:54;;;;;;;1.58;0.88;;;24.90;35.30;;;;;;5060047;28;20064;-40
2022/08/07 01:22:21;;;;;;;0.88;0.75;;;24.90;35.30;;;;;;5063705;28;20509;-47
2022/08/07 01:24:47;;;;;;;2.30;0.80;;;24.90;35.40;;;;;;5066755;28;20037;-40
2022/08/07 01:27:13;;;;;;;0.77;0.70;;;24.90;35.30;;;;;;5064543;28;20527;-41
2022/08/07 01:29:39;;;;;;;0.98;0.70;;;24.90;35.40;;;;;;5053704;28;20040;-40
2022/08/07 01:32:05;;;;;;;2.53;0.90;;;24.90;35.30;;;;;;5063630;28;20017;-42
2022/08/07 01:34:31;;;;;;;2.28;0.85;;;24.90;35.40;;;;;;5063665;28;20381;-40
2022/08/07 01:36:57;;;;;;;0.93;0.70;;;24.90;35.40;;;;;;5060282;28;20051;-41
2022/08/07 01:39:26;;;;;;;1.75;0.82;;;24.90;36.10;;;;;;5056033;28;20034;-45
2022/08/07 01:41:53;;;;;;;0.82;0.70;;;24.90;35.40;;;;;;5062201;28;20021;-40
2022/08/07 01:44:19;;;;;;;1.13;0.70;;;24.90;35.40;;;;;;5052586;28;20478;-40
2022/08/07 01:46:45;;;;;;;1.33;0.80;;;24.90;35.50;;;;;;5063227;28;20032;-40
2022/08/07 01:49:11;;;;;;;1.30;0.65;;;24.90;35.50;;;;;;5065981;28;20050;-40
2022/08/07 01:51:40;;;;;;;1.70;0.70;;;24.90;35.70;;;;;;5058179;28;20404;-41
2022/08/07 01:54:09;;;;;;;1.80;0.77;;;24.90;35.70;;;;;;5058776;28;20048;-41
2022/08/07 01:56:51;;;;;;;1.10;0.70;;;24.90;35.70;;;;;;5056913;28;20100;-47
2022/08/07 01:59:38;;;;;;;1.98;0.68;;;24.90;35.70;;;;;;5054294;28;20363;-40
2022/08/07 02:02:14;;;;;;;1.25;0.80;;;24.90;35.70;;;;;;5040466;28;20104;-44
2022/08/07 02:04:55;;;;;;;2.00;0.70;;;24.80;35.70;;;;;;5054505;28;20090;-41
2022/08/07 02:07:24;;;;;;;1.08;0.70;;;24.90;35.80;;;;;;5064786;28;20043;-47
2022/08/07 02:09:53;;;;;;;1.45;0.60;;;24.90;35.90;;;;;;5057772;28;20021;-40
2022/08/07 02:12:21;;;;;;;1.42;0.88;;;24.90;35.90;;;;;;5070593;28;20056;-40
2022/08/07 02:14:51;;;;;;;1.52;0.70;;;24.90;35.90;;;;;;5063255;28;20077;-40
2022/08/07 02:17:17;;;;;;;0.80;0.70;;;24.80;35.80;;;;;;5057826;28;20102;-42
2022/08/07 02:19:46;;;;;;;1.02;0.70;;;24.80;35.90;;;;;;5063896;28;20025;-40
2022/08/07 02:22:13;;;;;;;2.50;0.80;;;24.80;36.00;;;;;;5066506;28;20036;-40
2022/08/07 02:24:42;;;;;;;1.50;0.70;;;24.80;36.00;;;;;;5062428;28;20029;-40
2022/08/07 02:27:08;;;;;;;1.48;0.60;;;24.80;36.00;;;;;;5061767;28;20029;-41
2022/08/07 02:29:35;;;;;;;2.08;0.73;;;24.80;36.10;;;;;;5053581;28;20493;-40
2022/08/07 02:32:01;;;;;;;1.00;0.65;;;24.80;36.10;;;;;;5054762;28;20021;-42
2022/08/07 02:34:28;;;;;;;1.67;0.68;;;24.80;36.10;;;;;;5061546;28;20054;-40
2022/08/07 02:36:56;;;;;;;2.35;0.65;;;24.80;36.10;;;;;;5060098;28;20029;-41
2022/08/07 02:39:23;;;;;;;1.88;0.70;;;24.80;36.10;;;;;;5056132;28;20037;-49
2022/08/07 02:41:50;;;;;;;1.05;0.70;;;24.80;36.20;;;;;;5057143;28;20024;-40
2022/08/07 02:44:17;;;;;;;1.02;0.90;;;24.80;36.30;;;;;;5067886;28;20032;-40
2022/08/07 02:46:46;;;;;;;1.90;0.73;;;24.70;36.20;;;;;;5065931;28;20142;-40
2022/08/07 02:49:12;;;;;;;1.30;0.70;;;24.70;36.20;;;;;;5066021;28;20156;-40
2022/08/07 02:51:42;;;;;;;3.25;1.05;;;24.70;36.30;;;;;;5056789;28;20024;-40
2022/08/07 02:54:10;;;;;;;2.13;0.80;;;24.70;36.40;;;;;;5060057;28;20052;-40
2022/08/07 02:56:38;;;;;;;2.40;0.95;;;24.70;36.40;;;;;;5058360;28;20036;-43
2022/08/07 02:59:08;;;;;;;1.42;0.90;;;24.70;36.40;;;;;;5058501;28;20082;-43
2022/08/07 03:01:35;;;;;;;0.88;0.70;;;24.70;36.50;;;;;;5062246;28;20024;-41
2022/08/07 03:04:02;;;;;;;1.23;0.80;;;24.70;36.50;;;;;;5058885;28;20036;-41
2022/08/07 03:06:29;;;;;;;1.88;0.70;;;24.70;36.50;;;;;;5062134;28;20107;-41
2022/08/07 03:08:55;;;;;;;1.30;0.80;;;24.70;36.60;;;;;;5054150;28;20028;-41
2022/08/07 03:11:21;;;;;;;2.05;1.15;;;24.70;36.60;;;;;;5058820;28;20052;-46
2022/08/07 03:13:47;;;;;;;3.28;0.95;;;24.70;36.70;;;;;;5056541;28;20037;-41
2022/08/07 03:16:13;;;;;;;1.67;0.70;;;24.60;36.70;;;;;;5058314;28;20088;-41
2022/08/07 03:18:38;;;;;;;1.17;0.73;;;24.60;36.80;;;;;;5059824;28;20111;-41
2022/08/07 03:21:05;;;;;;;1.58;0.80;;;24.60;36.80;;;;;;5059158;28;20124;-45
2022/08/07 03:23:33;;;;;;;1.75;0.60;;;24.60;36.80;;;;;;5061827;28;20055;-41
2022/08/07 03:26:00;;;;;;;1.42;0.75;;;24.60;36.90;;;;;;5047937;28;20374;-40
2022/08/07 03:28:28;;;;;;;0.88;0.75;;;24.60;36.80;;;;;;5059694;28;20031;-40
2022/08/07 03:31:17;;;;;;;4.07;0.60;;;24.60;36.90;;;;;;5058877;28;20028;-42
2022/08/07 03:33:43;;;;;;;1.35;0.93;;;24.60;36.90;;;;;;5060743;28;20033;-41
2022/08/07 03:36:10;;;;;;;1.55;1.23;;;24.60;37.00;;;;;;5059397;28;20027;-40
2022/08/07 03:38:38;;;;;;;1.42;0.80;;;24.50;37.00;;;;;;5056577;28;20021;-43
2022/08/07 03:41:04;;;;;;;0.95;0.68;;;24.50;37.00;;;;;;5056461;28;20045;-41
2022/08/07 03:43:30;;;;;;;0.55;0.47;;;24.50;37.10;;;;;;5057155;28;20025;-43
2022/08/07 03:45:55;;;;;;;1.15;0.60;;;24.50;37.00;;;;;;5058827;28;20040;-41
2022/08/07 03:48:21;;;;;;;1.20;0.60;;;24.50;37.10;;;;;;5058613;28;20108;-46
2022/08/07 03:50:48;;;;;;;1.60;0.68;;;24.50;37.10;;;;;;5058167;28;20119;-40
2022/08/07 03:53:15;;;;;;;0.90;0.60;;;24.60;37.10;;;;;;5056156;28;20115;-41
2022/08/07 03:55:42;;;;;;;1.42;0.80;;;24.50;37.20;;;;;;5057114;28;20060;-41
2022/08/07 03:58:08;;;;;;;1.90;0.80;;;24.50;37.20;;;;;;5061534;28;20057;-41
2022/08/07 04:00:35;;;;;;;1.65;0.63;;;24.50;37.20;;;;;;5056389;28;20021;-40
2022/08/07 04:03:01;;;;;;;0.65;0.60;;;24.50;37.40;;;;;;5054029;28;20388;-40
2022/08/07 04:05:27;;;;;;;0.68;0.60;;;24.50;37.50;;;;;;5058882;28;20115;-40
2022/08/07 04:07:54;;;;;;;1.52;0.70;;;24.40;37.60;;;;;;5062278;28;20108;-40
2022/08/07 04:10:20;;;;;;;0.90;0.80;;;24.50;37.70;;;;;;5059145;28;20035;-47
2022/08/07 04:12:48;;;;;;;4.32;0.60;;;24.50;37.80;;;;;;5055675;28;20049;-40
2022/08/07 04:15:15;;;;;;;2.28;0.60;;;24.50;37.80;;;;;;5058754;28;20025;-40
2022/08/07 04:17:43;;;;;;;0.65;0.50;;;24.50;37.90;;;;;;5062585;28;20025;-42
2022/08/07 04:20:10;;;;;;;0.80;0.68;;;24.50;37.90;;;;;;5062328;28;20017;-40
2022/08/07 04:22:37;;;;;;;1.00;0.70;;;24.50;38.00;;;;;;5054882;28;20036;-42
2022/08/07 04:25:03;;;;;;;1.55;0.82;;;24.40;38.10;;;;;;5064644;28;20024;-40
2022/08/07 04:27:29;;;;;;;1.05;0.65;;;24.40;38.20;;;;;;5059965;28;20028;-39
2022/08/07 04:29:55;;;;;;;1.40;0.73;;;24.40;38.30;;;;;;5060778;28;20037;-40
2022/08/07 04:32:21;;;;;;;1.40;0.60;;;24.40;38.30;;;;;;5062413;28;20025;-46
2022/08/07 04:34:49;;;;;;;3.58;0.80;;;24.40;38.40;;;;;;5042861;28;20484;-40
2022/08/07 04:37:16;;;;;;;1.67;0.60;;;24.40;38.50;;;;;;5064435;28;20350;-40
2022/08/07 04:39:43;;;;;;;1.42;0.60;;;24.30;38.50;;;;;;5059844;28;20112;-39
2022/08/07 04:42:09;;;;;;;2.95;0.50;;;24.40;38.60;;;;;;5057567;28;20017;-40
2022/08/07 04:44:35;;;;;;;3.22;0.73;;;24.40;38.60;;;;;;5057720;28;20058;-40
2022/08/07 04:47:12;;;;;;;0.85;0.50;;;24.30;38.60;;;;;;5063054;28;20359;-40
2022/08/07 04:49:43;;;;;;;0.57;0.55;;;24.40;39.30;;;;;;5061885;28;20028;-40
2022/08/07 04:52:40;;;;;;;0.73;0.57;;;24.40;38.70;;;;;;5055472;28;20033;-40
2022/08/07 04:55:23;;;;;;;2.72;0.70;;;24.40;38.60;;;;;;5060459;28;20477;-41
2022/08/07 04:58:02;;;;;;;0.90;0.60;;;24.40;38.60;;;;;;5056552;28;20123;-40
2022/08/07 05:00:50;;;;;;;1.88;0.80;;;24.40;38.70;;;;;;5062125;28;20040;-41
2022/08/07 05:03:44;;;;;;;1.88;0.80;;;24.40;38.70;;;;;;5061441;28;20031;-40
2022/08/07 05:06:15;;;;;;;1.02;0.60;;;24.50;38.70;;;;;;5058585;28;20028;-40
2022/08/07 05:08:49;;;;;;;0.70;0.60;;;24.50;38.70;;;;;;5066588;28;20028;-41
2022/08/07 05:11:31;;;;;;;1.77;0.73;;;24.50;38.80;;;;;;5065128;28;20080;-40
2022/08/07 05:14:05;;;;;;;1.08;0.70;;;24.50;38.90;;;;;;5059793;28;20037;-40
2022/08/07 05:16:33;;;;;;;1.95;0.80;;;24.50;38.90;;;;;;5059968;28;20028;-40
2022/08/07 05:19:26;;;;;;;2.15;0.80;;;24.50;38.90;;;;;;5061547;28;20048;-40
2022/08/07 05:21:55;;;;;;;2.20;0.75;;;24.50;38.90;;;;;;5052482;28;20033;-40
2022/08/07 05:24:22;;;;;;;3.10;0.88;;;24.50;39.00;;;;;;5061496;28;20024;-47
2022/08/07 05:26:52;;;;;;;1.40;0.70;;;24.50;39.30;;;;;;5060892;28;20140;-40
2022/08/07 05:29:20;;;;;;;1.10;0.77;;;24.50;39.10;;;;;;5057674;28;20021;-40
2022/08/07 05:31:48;;;;;;;1.88;0.90;;;24.50;39.30;;;;;;5054238;28;20074;-40
2022/08/07 05:34:16;;;;;;;1.40;0.73;;;24.50;39.50;;;;;;5060792;28;20029;-40
2022/08/07 05:36:50;;;;;;;3.85;1.10;;;24.50;39.60;;;;;;5061018;28;20082;-40
2022/08/07 05:39:18;;;;;;;1.20;0.90;;;24.60;39.80;;;;;;5059528;28;20044;-41
2022/08/07 05:41:47;;;;;;;2.15;1.13;;;24.20;40.80;;;;;;5061243;28;20026;-40
2022/08/07 05:44:14;;;;;;;1.83;1.20;;;23.80;42.00;;;;;;5060926;28;20095;-41
2022/08/07 05:46:41;;;;;;;2.80;1.15;;;23.60;42.80;;;;;;5066351;28;20029;-40
2022/08/07 05:49:08;;;;;;;2.55;1.25;;;23.50;43.30;;;;;;5065836;28;20033;-40
2022/08/07 05:51:34;;;;;;;2.78;1.50;;;23.40;43.70;;;;;;5065585;28;20363;-40
2022/08/07 05:54:00;;;;;;;4.72;1.88;;;23.40;44.10;;;;;;5061776;28;20036;-40
2022/08/07 05:56:28;;;;;;;2.20;1.33;;;23.30;44.40;;;;;;5060495;28;20097;-40
2022/08/07 05:58:54;;;;;;;1.83;1.38;;;23.30;44.40;;;;;;5060345;28;20025;-40
2022/08/07 06:01:22;;;;;;;2.80;1.73;;;23.30;44.80;;;;;;5064808;28;20074;-46
2022/08/07 06:03:51;;;;;;;3.35;1.98;;;23.20;45.40;;;;;;5063936;28;20502;-40
2022/08/07 06:06:18;;;;;;;3.17;1.80;;;23.00;46.70;;;;;;5063316;28;20159;-40
2022/08/07 06:08:44;;;;;;;1.98;1.42;;;23.00;47.40;;;;;;5041617;28;20021;-40
2022/08/07 06:11:11;;;;;;;2.53;1.70;;;23.00;47.00;;;;;;5062693;28;20049;-40
2022/08/07 06:13:37;;;;;;;2.75;1.60;;;23.20;46.50;;;;;;5058411;28;20131;-40
2022/08/07 06:16:05;;;;;;;2.40;1.55;;;23.20;46.50;;;;;;5062258;28;20033;-41
2022/08/07 06:18:32;;;;;;;1.75;1.50;;;23.10;46.50;;;;;;5055917;28;20068;-41
2022/08/07 06:21:00;;;;;;;5.97;2.00;;;23.10;46.70;;;;;;5067239;28;20070;-40
2022/08/07 06:23:26;;;;;;;2.42;1.30;;;23.10;47.20;;;;;;5055834;28;20033;-41
2022/08/07 06:25:52;;;;;;;2.13;1.58;;;23.10;47.20;;;;;;5060785;28;20037;-40
2022/08/07 06:28:18;;;;;;;5.65;2.00;;;23.20;47.20;;;;;;5058829;28;20083;-40
2022/08/07 06:30:43;;;;;;;2.17;1.60;;;23.30;47.30;;;;;;5057273;28;20033;-40
2022/08/07 06:33:09;;;;;;;1.60;1.30;;;23.30;47.30;;;;;;5062906;28;20016;-41
2022/08/07 06:35:35;;;;;;;2.67;1.73;;;23.30;47.60;;;;;;5056032;28;20094;-40
2022/08/07 06:38:04;;;;;;;1.48;1.30;;;23.20;47.60;;;;;;5059455;28;20466;-40
2022/08/07 06:40:38;;;;;;;3.58;1.80;;;23.30;47.80;;;;;;5054453;28;20355;-40
2022/08/07 06:43:07;;;;;;;2.55;1.40;;;23.20;48.00;;;;;;5063030;28;20500;-40
2022/08/07 06:45:33;;;;;;;3.60;1.73;;;23.20;47.90;;;;;;5057451;28;20036;-40
2022/08/07 06:48:00;;;;;;;1.77;1.60;;;23.30;48.20;;;;;;5059111;28;20028;-40
2022/08/07 06:50:28;;;;;;;2.28;1.77;;;23.20;48.10;;;;;;5043601;28;20566;-40
2022/08/07 06:52:55;;;;;;;2.08;1.48;;;23.30;48.30;;;;;;5045586;28;20033;-40
2022/08/07 06:55:24;;;;;;;2.33;1.60;;;23.30;48.50;;;;;;5058596;28;20020;-50
2022/08/07 06:57:52;;;;;;;2.38;1.30;;;23.40;48.80;;;;;;5061607;28;20027;-40
2022/08/07 07:00:18;;;;;;;2.63;1.60;;;23.20;49.20;;;;;;5053192;28;20455;-40
2022/08/07 07:02:46;;;;;;;1.77;1.63;;;23.30;48.70;;;;;;5052019;28;20457;-40
2022/08/07 07:05:12;;;;;;;3.15;1.70;;;23.50;48.70;;;;;;5058510;28;20095;-40
2022/08/07 07:07:38;;;;;;;2.30;1.60;;;23.50;49.00;;;;;;5064812;28;20462;-40
2022/08/07 07:10:04;;;;;;;3.00;1.90;;;23.50;49.20;;;;;;5061722;28;20074;-40
2022/08/07 07:12:42;;;;;;;4.63;1.83;;;23.50;49.40;;;;;;5054968;28;20505;-40
2022/08/07 07:15:18;;;;;;;2.30;1.65;;;23.60;49.20;;;;;;5059357;28;20497;-40
2022/08/07 07:18:04;;;;;;;2.70;1.50;;;23.60;49.20;;;;;;5053707;28;21086;-40
2022/08/07 07:20:38;;;;;;;2.03;1.70;;;23.60;49.20;;;;;;5060188;28;20052;-40
2022/08/07 07:23:06;;;;;;;3.25;2.08;;;23.70;49.10;;;;;;5061903;28;20101;-41
2022/08/07 07:25:36;;;;;;;2.75;1.50;;;23.70;50.00;;;;;;5056907;28;20488;-40
2022/08/07 07:28:17;;;;;;;2.03;1.33;;;23.70;49.40;;;;;;5048864;28;20082;-39
2022/08/07 07:30:49;;;;;;;2.42;1.40;;;23.80;49.30;;;;;;5048497;28;20041;-38
2022/08/07 07:33:18;;;;;;;1.67;1.30;;;23.80;49.30;;;;;;5051321;28;20056;-40
2022/08/07 07:35:49;;;;;;;2.33;1.40;;;23.80;49.50;;;;;;5052816;28;20021;-39
2022/08/07 07:38:20;;;;;;;1.98;1.27;;;23.90;49.00;;;;;;5054811;28;20024;-39
2022/08/07 07:40:49;;;;;;;1.88;1.25;;;23.90;48.70;;;;;;5049953;28;20512;-39
2022/08/07 07:43:16;;;;;;;2.08;1.30;;;23.90;48.90;;;;;;5057961;28;20028;-39
2022/08/07 07:45:45;;;;;;;1.45;1.08;;;23.90;48.00;;;;;;5055515;28;20585;-39
2022/08/07 07:48:13;;;;;;;1.23;0.90;;;23.90;46.90;;;;;;5054464;28;20033;-41
2022/08/07 07:50:40;;;;;;;1.33;0.98;;;24.00;46.60;;;;;;5042316;28;20021;-39
2022/08/07 07:53:09;;;;;;;2.58;1.00;;;24.10;46.10;;;;;;5040476;28;20028;-39
2022/08/07 07:55:37;;;;;;;0.80;0.75;;;24.10;46.10;;;;;;5036711;28;20036;-40
2022/08/07 07:58:04;;;;;;;1.52;0.80;;;24.20;45.50;;;;;;5042691;28;20025;-39
2022/08/07 08:00:32;;;;;;;1.15;0.73;;;24.30;45.50;;;;;;5049008;28;20025;-39
2022/08/07 08:03:08;;;;;;;1.00;0.90;;;24.40;45.00;;;;;;5046568;28;20104;-39
2022/08/07 08:05:38;;;;;;;1.40;0.90;;;24.50;44.30;;;;;;5042692;28;20025;-39
2022/08/07 08:08:04;;;;;;;2.15;1.00;;;24.50;44.20;;;;;;5044655;28;20025;-40
2022/08/07 08:10:30;;;;;;;2.67;1.30;;;24.60;44.00;;;;;;5039200;28;20025;-39
2022/08/07 08:12:58;;;;;;;0.85;0.63;;;24.60;43.90;;;;;;5044565;28;20071;-39
2022/08/07 08:15:25;;;;;;;0.90;0.70;;;24.70;43.70;;;;;;5051464;28;20047;-43
2022/08/07 08:17:51;;;;;;;0.75;0.70;;;24.70;43.70;;;;;;5053584;28;20037;-39
2022/08/07 08:20:18;;;;;;;1.00;0.90;;;24.80;43.90;;;;;;5052449;28;20897;-40
2022/08/07 08:28:28;;;;;;;1.48;0.93;;;24.80;43.20;;;;;;5055126;28;20028;-40
2022/08/07 08:31:00;;;;;;;2.53;0.88;;;24.80;42.70;;;;;;5054012;28;20037;-40
2022/08/07 08:33:30;;;;;;;1.40;0.88;;;24.80;42.90;;;;;;5048437;28;20141;-41
2022/08/07 08:35:57;;;;;;;1.42;0.82;;;24.80;42.50;;;;;;5047937;28;20112;-43
2022/08/07 08:38:26;;;;;;;2.47;0.73;;;24.80;42.40;;;;;;5052599;28;20567;-43
2022/08/07 08:41:11;;;;;;;0.88;0.85;;;24.80;43.00;;;;;;5053624;28;20492;-41
2022/08/07 08:43:58;;;;;;;1.05;0.77;;;24.90;42.20;;;;;;5053124;28;20029;-42
2022/08/07 08:46:31;;;;;;;2.72;1.42;;;25.00;42.20;;;;;;5047312;28;20115;-43
2022/08/07 08:49:09;;;;;;;1.70;0.75;;;25.00;42.30;;;;;;5049501;28;20525;-39
2022/08/07 08:51:48;;;;;;;1.13;0.75;;;25.00;42.20;;;;;;5049666;28;20033;-40
2022/08/07 08:54:37;;;;;;;3.22;1.75;;;25.00;41.70;;;;;;5053950;28;20071;-40
2022/08/07 08:57:09;;;;;;;2.83;0.88;;;25.00;41.60;;;;;;5052344;28;20029;-42
2022/08/07 08:59:43;;;;;;;3.42;0.93;;;25.10;41.80;;;;;;5047887;28;20021;-40
2022/08/07 09:02:48;;;;;;;2.88;1.00;;;25.10;41.70;;;;;;5057093;28;20049;-42
2022/08/07 09:05:42;;;;;;;0.90;0.70;;;25.00;40.40;;;;;;5060689;28;20526;-41
2022/08/07 09:08:27;;;;;;;1.30;0.57;;;25.00;40.20;;;;;;5054265;28;20078;-41
2022/08/07 09:11:23;;;;;;;1.02;0.80;;;25.00;38.90;;;;;;5059830;28;20098;-41
2022/08/07 09:14:12;;;;;;;0.60;0.60;;;24.90;37.90;;;;;;5050233;28;20072;-41
2022/08/07 09:16:46;;;;;;;1.58;0.68;;;24.90;38.30;;;;;;5053216;28;20470;-40
2022/08/07 09:19:33;;;;;;;0.68;0.50;;;24.90;38.10;;;;;;5053777;28;20028;-40
2022/08/07 09:22:33;;;;;;;0.77;0.70;;;25.00;38.40;;;;;;5047883;28;20421;-40
2022/08/07 09:25:11;;;;;;;2.22;0.70;;;25.00;38.00;;;;;;5052063;28;20033;-41
2022/08/07 09:28:02;;;;;;;9.07;1.10;;;24.90;38.20;;;;;;5050064;28;20056;-42
2022/08/07 09:30:51;;;;;;;3.87;0.87;;;24.90;37.80;;;;;;5052809;28;20063;-40
2022/08/07 09:33:42;;;;;;;2.65;0.90;;;24.80;37.80;;;;;;5044157;28;20033;-40
2022/08/07 09:36:37;;;;;;;2.92;0.88;;;24.90;37.90;;;;;;5053312;28;20021;-41
2022/08/07 09:39:17;;;;;;;0.95;0.65;;;24.90;37.50;;;;;;5052614;28;20037;-41
2022/08/07 09:42:16;;;;;;;1.50;0.88;;;24.90;37.70;;;;;;5052692;28;20021;-41
2022/08/07 09:45:19;;;;;;;1.55;0.90;;;25.00;37.70;;;;;;5043077;28;20104;-40
2022/08/07 09:48:03;;;;;;;0.75;0.60;;;25.00;37.50;;;;;;5052152;28;20362;-40
2022/08/07 09:50:53;;;;;;;1.00;0.55;;;25.00;37.50;;;;;;5052443;28;20516;-41
2022/08/07 09:53:24;;;;;;;0.70;0.57;;;24.90;37.40;;;;;;5052290;28;20028;-40
2022/08/07 09:56:18;;;;;;;2.35;0.70;;;25.00;37.30;;;;;;5051175;28;20021;-40
2022/08/07 09:59:21;;;;;;;2.47;0.60;;;25.00;37.40;;;;;;5051288;28;20025;-40
2022/08/07 10:02:27;;;;;;;1.25;0.68;;;25.00;37.50;;;;;;5052226;28;20040;-40
2022/08/07 10:05:02;;;;;;;2.90;0.55;;;25.10;36.80;;;;;;5031192;28;20164;-42
2022/08/07 10:07:54;;;;;;;1.63;0.63;;;25.10;36.70;;;;;;5051957;28;20029;-43
2022/08/07 10:10:32;;;;;;;0.75;0.60;;;25.10;36.50;;;;;;5050094;28;20078;-46
2022/08/07 10:13:34;;;;;;;0.98;0.60;;;25.10;35.70;;;;;;5031501;28;20057;-41
2022/08/07 10:16:12;;;;;;;1.27;0.45;;;25.10;35.40;;;;;;5028393;28;20029;-41
2022/08/07 10:19:15;;;;;;;2.58;0.60;;;25.20;35.70;;;;;;5033544;28;20070;-41
2022/08/07 10:22:00;;;;;;;4.05;0.70;;;25.20;36.20;;;;;;5029573;28;20086;-41
2022/08/07 10:24:32;;;;;;;1.92;0.60;;;25.30;36.60;;;;;;5031920;28;20034;-42
2022/08/07 10:27:09;;;;;;;;;;;25.40;36.90;;;;;;5030851;28;20109;-41
2022/08/07 10:29:42;;;;;;;0.63;0.50;;;25.40;37.20;;;;;;5030574;28;19932;-43
2022/08/07 10:32:43;;;;;;;1.63;0.50;;;25.50;37.40;;;;;;5033031;28;20025;-41
2022/08/07 10:35:25;;;;;;;1.23;0.60;;;25.50;37.70;;;;;;5030719;28;20489;-41
2022/08/07 10:38:43;;;;;;;0.80;0.40;;;25.50;37.80;;;;;;5029856;28;20396;-41
2022/08/07 10:41:18;;;;;;;0.95;0.65;;;25.60;38.10;;;;;;4994843;28;20505;-41
2022/08/07 10:44:19;;;;;;;1.33;0.70;;;25.60;38.30;;;;;;5041194;28;20128;-42
2022/08/07 10:47:06;;;;;;;0.50;0.50;;;25.60;38.40;;;;;;5029703;28;20031;-41
2022/08/07 10:49:43;;;;;;;1.30;0.57;;;25.60;38.50;;;;;;5035620;28;20382;-41
2022/08/07 10:52:20;;;;;;;0.40;0.40;;;25.60;38.70;;;;;;5032693;28;20053;-41
2022/08/07 10:54:58;;;;;;;1.95;0.68;;;25.60;38.70;;;;;;5029385;28;20039;-41
2022/08/07 10:57:25;;;;;;;0.57;0.52;;;25.70;38.30;;;;;;5030505;28;20068;-49
2022/08/07 11:00:12;;;;;;;0.80;0.50;;;25.60;37.20;;;;;;5035584;28;20025;-41
2022/08/07 11:03:01;;;;;;;0.80;0.50;;;25.60;36.00;;;;;;5041598;28;20059;-42
2022/08/07 11:05:38;;;;;;;2.78;1.40;;;25.60;35.40;;;;;;5029656;28;20056;-40
2022/08/07 11:08:10;;;;;;;1.38;0.60;;;25.60;35.70;;;;;;5035803;28;20025;-41
2022/08/07 11:10:45;;;;;;;0.57;0.40;;;25.60;35.50;;;;;;5033168;28;20034;-41
2022/08/07 11:13:38;;;;;;;2.17;0.63;;;25.60;35.60;;;;;;5055563;28;20056;-41
2022/08/07 11:16:10;;;;;;;2.60;0.55;;;25.60;36.30;;;;;;5055209;28;20036;-41
2022/08/07 11:18:55;;;;;;;1.77;0.60;;;25.70;36.90;;;;;;5073535;28;20024;-41
2022/08/07 11:21:41;;;;;;;1.58;0.70;;;25.70;37.00;;;;;;5076041;28;20119;-45
2022/08/07 11:24:38;;;;;;;1.45;0.50;;;25.70;36.50;;;;;;5071074;28;20072;-41
2022/08/07 11:27:31;;;;;;;0.95;0.50;;;25.70;36.40;;;;;;5069533;28;20097;-44
2022/08/07 11:30:04;;;;;;;2.03;0.45;;;25.80;36.50;;;;;;5074137;28;20041;-41
2022/08/07 11:32:42;;;;;;;2.22;0.50;;;25.70;36.40;;;;;;5074476;28;20465;-42
2022/08/07 11:35:14;;;;;;;2.28;0.40;;;25.70;36.50;;;;;;5070498;28;20495;-43
2022/08/07 11:37:52;;;;;;;;;;;25.80;36.80;;;;;;5077309;28;20548;-42
2022/08/07 11:40:58;;;;;;;1.92;0.82;;;25.80;37.10;;;;;;5076194;28;20261;-42
2022/08/07 11:43:24;;;;;;;0.60;0.50;;;25.80;37.70;;;;;;5064950;28;20040;-51
2022/08/07 11:46:08;;;;;;;3.42;0.90;;;25.90;38.00;;;;;;5076863;28;20447;-42
2022/08/07 11:49:19;;;;;;;6.60;0.98;;;25.80;38.70;;;;;;5075800;28;20096;-42
2022/08/07 11:52:12;;;;;;;47.85;11.50;;;25.90;38.50;;;;;;5061620;28;20040;-43
2022/08/07 11:54:42;;;;;;;17.40;4.15;;;25.90;39.00;;;;;;5081223;28;20016;-42
2022/08/07 11:57:26;;;;;;;10.68;2.75;;;25.90;39.20;;;;;;5071160;28;20086;-43
2022/08/07 11:59:54;;;;;;;11.30;3.42;;;25.90;39.50;;;;;;5076081;28;20029;-42
2022/08/07 12:02:41;;;;;;;18.48;3.75;;;26.00;39.60;;;;;;5081326;28;20040;-45
2022/08/07 12:05:40;;;;;;;17.20;4.45;;;26.00;39.80;;;;;;5074922;28;20474;-42
2022/08/07 12:08:16;;;;;;;15.05;4.00;;;26.00;39.80;;;;;;5070834;28;20428;-42
2022/08/07 12:10:57;;;;;;;12.32;3.50;;;26.00;40.30;;;;;;5065074;28;20721;-42
2022/08/07 12:13:28;;;;;;;16.77;4.07;;;26.00;40.10;;;;;;5068500;28;20127;-48
2022/08/07 12:16:03;;;;;;;13.02;3.50;;;26.00;40.00;;;;;;5072546;28;20040;-42
2022/08/07 12:18:38;;;;;;;17.17;3.80;;;26.00;40.20;;;;;;5072440;28;20024;-42
2022/08/07 12:21:19;;;;;;;19.25;3.85;;;26.10;40.30;;;;;;5077525;28;20078;-42
2022/08/07 12:23:51;;;;;;;18.00;4.60;;;26.10;40.30;;;;;;5067114;28;20031;-42
2022/08/07 12:26:16;;;;;;;;;;;26.10;40.40;;;;;;5071980;28;20044;-42
2022/08/07 12:29:11;;;;;;;13.15;3.38;;;26.10;40.40;;;;;;5082112;28;19983;-42
2022/08/07 12:31:55;;;;;;;16.45;3.83;;;26.10;40.50;;;;;;5063826;28;20159;-44
2022/08/07 12:34:22;;;;;;;10.73;3.13;;;26.10;40.50;;;;;;5073877;28;20111;-47
2022/08/07 12:36:51;;;;;;;13.15;3.22;;;26.10;40.50;;;;;;5086848;28;20047;-42
2022/08/07 12:39:19;;;;;;;10.07;2.90;;;26.10;40.60;;;;;;5077124;28;20032;-42
2022/08/07 12:41:45;;;;;;;15.90;4.38;;;26.10;40.70;;;;;;5076445;28;20029;-42
2022/08/07 12:44:13;;;;;;;13.48;2.90;;;26.10;40.70;;;;;;5084357;28;20547;-42
2022/08/07 12:47:13;;;;;;;10.82;2.88;;;26.10;40.80;;;;;;5083604;28;20020;-42
2022/08/07 12:50:05;;;;;;;11.70;3.03;;;26.10;40.80;;;;;;5065638;28;20025;-42
2022/08/07 12:52:40;;;;;;;10.75;3.50;;;26.10;40.80;;;;;;5077208;28;20030;-42
2022/08/07 12:55:21;;;;;;;10.82;3.50;;;26.10;40.80;;;;;;5080115;28;20370;-43
2022/08/07 12:57:48;;;;;;;9.67;3.63;;;26.10;40.90;;;;;;5076245;28;20032;-42
2022/08/07 13:00:14;;;;;;;9.82;2.33;;;26.10;40.80;;;;;;5078253;28;20031;-42
2022/08/07 13:03:08;;;;;;;8.40;2.22;;;26.10;40.80;;;;;;5085438;28;20833;-42
2022/08/07 13:05:52;;;;;;;8.82;2.72;;;26.10;40.90;;;;;;5073891;28;20036;-42
2022/08/07 13:08:37;;;;;;;7.70;2.63;;;26.10;40.90;;;;;;5066421;28;20047;-42
2022/08/07 13:11:30;;;;;;;9.00;2.55;;;26.20;40.90;;;;;;5068041;28;20044;-46
2022/08/07 13:14:10;;;;;;;9.00;2.53;;;26.20;40.90;;;;;;5074682;28;20051;-41
2022/08/07 13:16:44;;;;;;;7.82;2.58;;;26.30;41.00;;;;;;5078281;28;20032;-40
2022/08/07 13:19:20;;;;;;;6.88;2.03;;;26.30;40.80;;;;;;5070675;28;20056;-40
2022/08/07 13:21:54;;;;;;;7.43;2.25;;;26.40;40.70;;;;;;5075244;28;20028;-40
2022/08/07 13:24:41;;;;;;;8.60;2.42;;;26.40;40.60;;;;;;5074187;28;20037;-46
2022/08/07 13:27:07;;;;;;;6.68;2.22;;;26.50;40.60;;;;;;5077960;28;20028;-40